sensor_id;sensor_type;location;lat;lon;timestamp;pressure;altitude;pressure_sealevel;temperature;humidity
81177;BME280;70786;48.272;14.200;2023-08-17T00:00:14;98150.78;;;18.80;95.77
81177;BME280;70786;48.272;14.200;2023-08-17T00:02:41;98147.66;;;18.76;96.12
81177;BME280;70786;48.272;14.200;2023-08-17T00:05:07;98148.41;;;18.68;95.88
81177;BME280;70786;48.272;14.200;2023-08-17T00:07:33;98156.91;;;18.71;96.21
81177;BME280;70786;48.272;14.200;2023-08-17T00:09:59;98147.28;;;18.71;95.89
81177;BME280;70786;48.272;14.200;2023-08-17T00:12:25;98143.41;;;18.75;94.96
81177;BME280;70786;48.272;14.200;2023-08-17T00:14:52;98154.56;;;18.77;94.94
81177;BME280;70786;48.272;14.200;2023-08-17T00:17:19;98155.06;;;18.81;95.08
81177;BME280;70786;48.272;14.200;2023-08-17T00:19:45;98160.75;;;18.76;95.47
81177;BME280;70786;48.272;14.200;2023-08-17T00:22:11;98156.25;;;18.68;95.84
81177;BME280;70786;48.272;14.200;2023-08-17T00:24:37;98140.56;;;18.68;95.74
81177;BME280;70786;48.272;14.200;2023-08-17T00:27:03;98134.50;;;18.68;95.92
81177;BME280;70786;48.272;14.200;2023-08-17T00:29:30;98137.50;;;18.73;96.23
81177;BME280;70786;48.272;14.200;2023-08-17T00:31:56;98135.84;;;18.72;95.87
81177;BME280;70786;48.272;14.200;2023-08-17T00:34:22;98136.13;;;18.69;96.17
81177;BME280;70786;48.272;14.200;2023-08-17T00:36:48;98134.94;;;18.63;95.35
81177;BME280;70786;48.272;14.200;2023-08-17T00:39:14;98134.81;;;18.65;96.32
81177;BME280;70786;48.272;14.200;2023-08-17T00:41:40;98135.63;;;18.65;95.54
81177;BME280;70786;48.272;14.200;2023-08-17T00:44:06;98124.59;;;18.62;96.38
81177;BME280;70786;48.272;14.200;2023-08-17T00:46:32;98128.00;;;18.54;95.01
81177;BME280;70786;48.272;14.200;2023-08-17T00:48:59;98126.94;;;18.47;95.40
81177;BME280;70786;48.272;14.200;2023-08-17T00:51:26;98125.06;;;18.39;94.12
81177;BME280;70786;48.272;14.200;2023-08-17T00:53:54;98128.19;;;18.25;93.28
81177;BME280;70786;48.272;14.200;2023-08-17T00:56:21;98128.69;;;18.11;97.32
81177;BME280;70786;48.272;14.200;2023-08-17T00:58:49;98123.19;;;18.14;98.20
81177;BME280;70786;48.272;14.200;2023-08-17T01:01:15;98115.63;;;18.11;95.10
81177;BME280;70786;48.272;14.200;2023-08-17T01:03:42;98114.00;;;18.10;96.48
81177;BME280;70786;48.272;14.200;2023-08-17T01:06:09;98116.53;;;18.02;95.00
81177;BME280;70786;48.272;14.200;2023-08-17T01:08:36;98126.97;;;18.02;97.69
81177;BME280;70786;48.272;14.200;2023-08-17T01:11:18;98129.16;;;17.79;98.55
81177;BME280;70786;48.272;14.200;2023-08-17T01:13:55;98125.47;;;17.71;98.98
81177;BME280;70786;48.272;14.200;2023-08-17T01:16:33;98122.31;;;17.68;100.00
81177;BME280;70786;48.272;14.200;2023-08-17T01:19:01;98124.00;;;17.59;100.00
81177;BME280;70786;48.272;14.200;2023-08-17T01:21:36;98122.66;;;17.55;100.00
81177;BME280;70786;48.272;14.200;2023-08-17T01:24:04;98122.78;;;17.53;100.00
81177;BME280;70786;48.272;14.200;2023-08-17T01:26:30;98122.78;;;17.53;100.00
81177;BME280;70786;48.272;14.200;2023-08-17T01:28:56;98124.59;;;17.53;100.00
81177;BME280;70786;48.272;14.200;2023-08-17T01:31:31;98127.16;;;17.63;100.00
81177;BME280;70786;48.272;14.200;2023-08-17T01:34:07;98122.16;;;17.69;100.00
81177;BME280;70786;48.272;14.200;2023-08-17T01:36:42;98125.47;;;17.71;99.94
81177;BME280;70786;48.272;14.200;2023-08-17T01:39:10;98131.91;;;17.77;99.39
81177;BME280;70786;48.272;14.200;2023-08-17T01:41:37;98124.03;;;17.87;100.00
81177;BME280;70786;48.272;14.200;2023-08-17T01:44:04;98132.28;;;17.92;99.89
81177;BME280;70786;48.272;14.200;2023-08-17T01:46:32;98132.78;;;17.95;99.46
81177;BME280;70786;48.272;14.200;2023-08-17T01:48:58;98129.78;;;17.90;98.14
81177;BME280;70786;48.272;14.200;2023-08-17T01:51:24;98137.09;;;17.87;98.59
81177;BME280;70786;48.272;14.200;2023-08-17T01:53:51;98144.53;;;17.82;98.65
81177;BME280;70786;48.272;14.200;2023-08-17T01:56:17;98146.22;;;17.83;98.74
81177;BME280;70786;48.272;14.200;2023-08-17T01:58:43;98141.41;;;17.78;98.56
81177;BME280;70786;48.272;14.200;2023-08-17T02:01:15;98135.88;;;17.81;98.83
81177;BME280;70786;48.272;14.200;2023-08-17T02:03:41;98140.47;;;17.79;99.62
81177;BME280;70786;48.272;14.200;2023-08-17T02:06:11;98135.78;;;17.73;99.63
81177;BME280;70786;48.272;14.200;2023-08-17T02:08:41;98138.22;;;17.74;99.79
81177;BME280;70786;48.272;14.200;2023-08-17T02:11:07;98146.13;;;17.65;97.89
81177;BME280;70786;48.272;14.200;2023-08-17T02:13:33;98137.59;;;17.63;100.00
81177;BME280;70786;48.272;14.200;2023-08-17T02:16:05;98135.03;;;17.53;99.81
81177;BME280;70786;48.272;14.200;2023-08-17T02:18:33;98128.13;;;17.62;100.00
81177;BME280;70786;48.272;14.200;2023-08-17T02:21:06;98134.56;;;17.67;100.00
81177;BME280;70786;48.272;14.200;2023-08-17T02:23:32;98138.03;;;17.58;100.00
81177;BME280;70786;48.272;14.200;2023-08-17T02:26:01;98139.44;;;17.52;100.00
81177;BME280;70786;48.272;14.200;2023-08-17T02:28:39;98136.66;;;17.54;100.00
81177;BME280;70786;48.272;14.200;2023-08-17T02:31:06;98141.59;;;17.67;100.00
81177;BME280;70786;48.272;14.200;2023-08-17T02:33:32;98145.31;;;17.64;100.00
81177;BME280;70786;48.272;14.200;2023-08-17T02:35:59;98149.97;;;17.61;100.00
81177;BME280;70786;48.272;14.200;2023-08-17T02:38:29;98146.41;;;17.62;100.00
81177;BME280;70786;48.272;14.200;2023-08-17T02:40:58;98142.81;;;17.63;100.00
81177;BME280;70786;48.272;14.200;2023-08-17T02:43:25;98137.06;;;17.59;100.00
81177;BME280;70786;48.272;14.200;2023-08-17T02:45:51;98127.72;;;17.57;100.00
81177;BME280;70786;48.272;14.200;2023-08-17T02:48:20;98126.75;;;17.58;100.00
81177;BME280;70786;48.272;14.200;2023-08-17T02:50:55;98122.09;;;17.51;100.00
81177;BME280;70786;48.272;14.200;2023-08-17T02:53:21;98127.25;;;17.43;100.00
81177;BME280;70786;48.272;14.200;2023-08-17T02:55:47;98122.44;;;17.39;100.00
81177;BME280;70786;48.272;14.200;2023-08-17T02:58:14;98121.09;;;17.35;100.00
81177;BME280;70786;48.272;14.200;2023-08-17T03:00:40;98118.09;;;17.20;100.00
81177;BME280;70786;48.272;14.200;2023-08-17T03:03:06;98119.63;;;17.13;100.00
81177;BME280;70786;48.272;14.200;2023-08-17T03:05:35;98121.84;;;17.07;100.00
81177;BME280;70786;48.272;14.200;2023-08-17T03:08:02;98123.59;;;17.07;100.00
81177;BME280;70786;48.272;14.200;2023-08-17T03:10:29;98117.16;;;17.11;100.00
81177;BME280;70786;48.272;14.200;2023-08-17T03:12:55;98117.97;;;17.12;100.00
81177;BME280;70786;48.272;14.200;2023-08-17T03:15:24;98130.63;;;17.06;100.00
81177;BME280;70786;48.272;14.200;2023-08-17T03:17:51;98111.13;;;17.11;100.00
81177;BME280;70786;48.272;14.200;2023-08-17T03:20:20;98108.22;;;17.14;100.00
81177;BME280;70786;48.272;14.200;2023-08-17T03:22:50;98114.41;;;17.13;100.00
81177;BME280;70786;48.272;14.200;2023-08-17T03:25:16;98107.38;;;17.13;100.00
81177;BME280;70786;48.272;14.200;2023-08-17T03:27:46;98122.63;;;17.18;100.00
81177;BME280;70786;48.272;14.200;2023-08-17T03:30:13;98113.81;;;17.19;100.00
81177;BME280;70786;48.272;14.200;2023-08-17T03:32:40;98111.38;;;17.17;100.00
81177;BME280;70786;48.272;14.200;2023-08-17T03:35:08;98120.06;;;17.08;100.00
81177;BME280;70786;48.272;14.200;2023-08-17T03:37:34;98121.31;;;16.94;100.00
81177;BME280;70786;48.272;14.200;2023-08-17T03:40:01;98125.59;;;16.76;100.00
81177;BME280;70786;48.272;14.200;2023-08-17T03:42:27;98131.72;;;16.65;100.00
81177;BME280;70786;48.272;14.200;2023-08-17T03:44:58;98132.44;;;16.67;100.00
81177;BME280;70786;48.272;14.200;2023-08-17T03:47:30;98142.03;;;16.67;100.00
81177;BME280;70786;48.272;14.200;2023-08-17T03:49:59;98142.03;;;16.67;100.00
81177;BME280;70786;48.272;14.200;2023-08-17T03:52:29;98136.69;;;16.68;100.00
81177;BME280;70786;48.272;14.200;2023-08-17T03:54:55;98143.84;;;16.76;100.00
81177;BME280;70786;48.272;14.200;2023-08-17T03:57:24;98148.91;;;16.77;100.00
81177;BME280;70786;48.272;14.200;2023-08-17T03:59:53;98141.94;;;16.78;100.00
81177;BME280;70786;48.272;14.200;2023-08-17T04:02:22;98148.50;;;16.72;100.00
81177;BME280;70786;48.272;14.200;2023-08-17T04:04:49;98151.09;;;16.72;100.00
81177;BME280;70786;48.272;14.200;2023-08-17T04:07:22;98144.91;;;16.73;100.00
81177;BME280;70786;48.272;14.200;2023-08-17T04:09:56;98141.09;;;16.77;100.00
81177;BME280;70786;48.272;14.200;2023-08-17T04:12:28;98151.25;;;16.80;100.00
81177;BME280;70786;48.272;14.200;2023-08-17T04:14:55;98156.75;;;16.87;100.00
81177;BME280;70786;48.272;14.200;2023-08-17T04:17:22;98153.97;;;16.98;100.00
81177;BME280;70786;48.272;14.200;2023-08-17T04:19:48;98160.72;;;17.11;100.00
81177;BME280;70786;48.272;14.200;2023-08-17T04:22:14;98159.56;;;17.33;100.00
81177;BME280;70786;48.272;14.200;2023-08-17T04:24:43;98155.41;;;17.49;100.00
81177;BME280;70786;48.272;14.200;2023-08-17T04:27:12;98155.53;;;17.75;100.00
81177;BME280;70786;48.272;14.200;2023-08-17T04:29:42;98157.47;;;17.83;99.37
81177;BME280;70786;48.272;14.200;2023-08-17T04:32:14;98156.81;;;18.09;97.25
81177;BME280;70786;48.272;14.200;2023-08-17T04:34:43;98158.88;;;18.05;96.93
81177;BME280;70786;48.272;14.200;2023-08-17T04:37:12;98163.63;;;17.92;98.08
81177;BME280;70786;48.272;14.200;2023-08-17T04:39:38;98172.91;;;18.04;97.72
81177;BME280;70786;48.272;14.200;2023-08-17T04:42:05;98164.81;;;18.25;96.92
81177;BME280;70786;48.272;14.200;2023-08-17T04:44:34;98164.31;;;18.57;94.50
81177;BME280;70786;48.272;14.200;2023-08-17T04:47:03;98159.53;;;18.88;92.98
81177;BME280;70786;48.272;14.200;2023-08-17T04:49:29;98167.16;;;19.00;91.83
81177;BME280;70786;48.272;14.200;2023-08-17T04:51:58;98167.28;;;19.16;89.88
81177;BME280;70786;48.272;14.200;2023-08-17T04:54:25;98166.75;;;19.12;89.69
81177;BME280;70786;48.272;14.200;2023-08-17T04:56:57;98167.06;;;19.09;90.65
81177;BME280;70786;48.272;14.200;2023-08-17T04:59:24;98165.25;;;18.84;91.84
81177;BME280;70786;48.272;14.200;2023-08-17T05:01:55;98166.44;;;19.33;88.85
81177;BME280;70786;48.272;14.200;2023-08-17T05:04:21;98164.00;;;19.40;87.70
81177;BME280;70786;48.272;14.200;2023-08-17T05:06:50;98174.88;;;19.79;86.48
81177;BME280;70786;48.272;14.200;2023-08-17T05:09:17;98177.28;;;19.99;86.23
81177;BME280;70786;48.272;14.200;2023-08-17T05:11:45;98182.88;;;20.12;85.28
81177;BME280;70786;48.272;14.200;2023-08-17T05:14:17;98187.53;;;20.43;84.36
81177;BME280;70786;48.272;14.200;2023-08-17T05:16:44;98186.16;;;20.81;81.53
81177;BME280;70786;48.272;14.200;2023-08-17T05:19:15;98189.63;;;20.98;80.53
81177;BME280;70786;48.272;14.200;2023-08-17T05:21:42;98189.78;;;21.05;80.40
81177;BME280;70786;48.272;14.200;2023-08-17T05:24:08;98190.56;;;21.54;78.14
81177;BME280;70786;48.272;14.200;2023-08-17T05:26:35;98187.38;;;21.83;76.19
81177;BME280;70786;48.272;14.200;2023-08-17T05:29:04;98186.22;;;22.25;74.36
81177;BME280;70786;48.272;14.200;2023-08-17T05:31:30;98187.19;;;21.85;74.40
81177;BME280;70786;48.272;14.200;2023-08-17T05:34:00;98190.19;;;22.52;73.75
81177;BME280;70786;48.272;14.200;2023-08-17T05:36:32;98183.69;;;22.63;71.85
81177;BME280;70786;48.272;14.200;2023-08-17T05:38:59;98181.78;;;22.26;73.86
81177;BME280;70786;48.272;14.200;2023-08-17T05:41:30;98181.03;;;22.63;73.12
81177;BME280;70786;48.272;14.200;2023-08-17T05:44:01;98186.22;;;23.55;68.29
81177;BME280;70786;48.272;14.200;2023-08-17T05:46:28;98184.75;;;23.53;68.30
81177;BME280;70786;48.272;14.200;2023-08-17T05:48:54;98193.31;;;22.25;70.04
81177;BME280;70786;48.272;14.200;2023-08-17T05:51:21;98200.25;;;22.72;69.48
81177;BME280;70786;48.272;14.200;2023-08-17T05:53:47;98192.78;;;21.82;72.88
81177;BME280;70786;48.272;14.200;2023-08-17T05:56:16;98191.38;;;22.42;72.02
81177;BME280;70786;48.272;14.200;2023-08-17T05:58:45;98188.78;;;21.14;78.25
81177;BME280;70786;48.272;14.200;2023-08-17T06:01:12;98191.94;;;22.37;72.89
81177;BME280;70786;48.272;14.200;2023-08-17T06:03:38;98197.88;;;22.31;73.50
81177;BME280;70786;48.272;14.200;2023-08-17T06:06:05;98199.53;;;22.24;73.74
81177;BME280;70786;48.272;14.200;2023-08-17T06:08:31;98191.75;;;21.91;74.71
81177;BME280;70786;48.272;14.200;2023-08-17T06:11:01;98196.56;;;22.27;74.56
81177;BME280;70786;48.272;14.200;2023-08-17T06:13:30;98188.91;;;21.61;76.42
81177;BME280;70786;48.272;14.200;2023-08-17T06:16:06;98196.44;;;21.73;75.24
81177;BME280;70786;48.272;14.200;2023-08-17T06:18:33;98189.03;;;22.16;74.80
81177;BME280;70786;48.272;14.200;2023-08-17T06:21:00;98190.00;;;22.31;74.70
81177;BME280;70786;48.272;14.200;2023-08-17T06:23:28;98192.44;;;21.93;75.29
81177;BME280;70786;48.272;14.200;2023-08-17T06:26:00;98185.72;;;21.74;75.64
81177;BME280;70786;48.272;14.200;2023-08-17T06:28:27;98182.91;;;21.92;75.60
81177;BME280;70786;48.272;14.200;2023-08-17T06:30:55;98178.72;;;22.68;71.57
81177;BME280;70786;48.272;14.200;2023-08-17T06:33:24;98184.91;;;22.52;73.10
81177;BME280;70786;48.272;14.200;2023-08-17T06:35:51;98190.47;;;21.95;75.17
81177;BME280;70786;48.272;14.200;2023-08-17T06:38:17;98179.09;;;23.26;71.87
81177;BME280;70786;48.272;14.200;2023-08-17T06:40:45;98181.03;;;23.32;71.63
81177;BME280;70786;48.272;14.200;2023-08-17T06:43:14;98181.47;;;22.13;74.67
81177;BME280;70786;48.272;14.200;2023-08-17T06:45:41;98185.16;;;23.12;71.62
81177;BME280;70786;48.272;14.200;2023-08-17T06:48:07;98174.25;;;22.92;70.93
81177;BME280;70786;48.272;14.200;2023-08-17T06:50:37;98182.50;;;22.03;72.44
81177;BME280;70786;48.272;14.200;2023-08-17T06:53:04;98175.84;;;22.55;73.49
81177;BME280;70786;48.272;14.200;2023-08-17T06:55:44;98181.94;;;21.85;74.58
81177;BME280;70786;48.272;14.200;2023-08-17T06:58:11;98173.56;;;23.36;72.29
81177;BME280;70786;48.272;14.200;2023-08-17T07:00:37;98183.09;;;22.99;70.76
81177;BME280;70786;48.272;14.200;2023-08-17T07:03:06;98176.97;;;23.07;71.42
81177;BME280;70786;48.272;14.200;2023-08-17T07:05:36;98183.59;;;22.48;73.52
81177;BME280;70786;48.272;14.200;2023-08-17T07:08:07;98182.97;;;23.53;68.79
81177;BME280;70786;48.272;14.200;2023-08-17T07:10:34;98185.81;;;23.29;69.63
81177;BME280;70786;48.272;14.200;2023-08-17T07:13:00;98180.41;;;22.38;71.00
81177;BME280;70786;48.272;14.200;2023-08-17T07:15:34;98190.31;;;22.82;70.44
81177;BME280;70786;48.272;14.200;2023-08-17T07:18:01;98196.63;;;22.50;72.20
81177;BME280;70786;48.272;14.200;2023-08-17T07:20:30;98196.63;;;23.19;68.42
81177;BME280;70786;48.272;14.200;2023-08-17T07:22:56;98185.69;;;23.60;67.23
81177;BME280;70786;48.272;14.200;2023-08-17T07:25:22;98188.28;;;23.83;65.30
81177;BME280;70786;48.272;14.200;2023-08-17T07:27:49;98194.09;;;22.57;69.42
81177;BME280;70786;48.272;14.200;2023-08-17T07:30:15;98194.47;;;23.37;67.37
81177;BME280;70786;48.272;14.200;2023-08-17T07:32:41;98194.25;;;23.62;67.04
81177;BME280;70786;48.272;14.200;2023-08-17T07:35:07;98197.88;;;23.91;66.54
81177;BME280;70786;48.272;14.200;2023-08-17T07:37:33;98204.88;;;24.64;64.04
81177;BME280;70786;48.272;14.200;2023-08-17T07:40:00;98202.81;;;24.45;64.88
81177;BME280;70786;48.272;14.200;2023-08-17T07:42:26;98204.31;;;22.51;68.91
81177;BME280;70786;48.272;14.200;2023-08-17T07:44:52;98209.06;;;24.07;65.55
81177;BME280;70786;48.272;14.200;2023-08-17T07:47:18;98213.63;;;25.08;64.38
81177;BME280;70786;48.272;14.200;2023-08-17T07:49:43;98206.72;;;24.13;65.23
81177;BME280;70786;48.272;14.200;2023-08-17T07:52:10;98216.34;;;24.93;61.04
81177;BME280;70786;48.272;14.200;2023-08-17T07:54:36;98205.31;;;24.68;61.82
81177;BME280;70786;48.272;14.200;2023-08-17T07:57:02;98203.75;;;24.95;62.55
81177;BME280;70786;48.272;14.200;2023-08-17T07:59:29;98204.00;;;24.78;61.83
81177;BME280;70786;48.272;14.200;2023-08-17T08:01:55;98204.63;;;23.78;64.52
81177;BME280;70786;48.272;14.200;2023-08-17T08:04:21;98203.16;;;23.76;65.72
81177;BME280;70786;48.272;14.200;2023-08-17T08:06:47;98202.88;;;24.88;61.01
81177;BME280;70786;48.272;14.200;2023-08-17T08:09:13;98196.88;;;24.21;63.95
81177;BME280;70786;48.272;14.200;2023-08-17T08:11:39;98191.94;;;24.18;63.65
81177;BME280;70786;48.272;14.200;2023-08-17T08:14:05;98196.69;;;24.81;61.72
81177;BME280;70786;48.272;14.200;2023-08-17T08:16:31;98191.22;;;25.53;60.62
81177;BME280;70786;48.272;14.200;2023-08-17T08:18:57;98200.06;;;24.17;62.47
81177;BME280;70786;48.272;14.200;2023-08-17T08:21:23;98201.47;;;24.70;61.40
81177;BME280;70786;48.272;14.200;2023-08-17T08:23:49;98195.84;;;25.44;60.40
81177;BME280;70786;48.272;14.200;2023-08-17T08:26:15;98192.50;;;25.36;59.73
81177;BME280;70786;48.272;14.200;2023-08-17T08:28:41;98195.25;;;24.05;64.09
81177;BME280;70786;48.272;14.200;2023-08-17T08:31:07;98203.31;;;24.91;62.61
81177;BME280;70786;48.272;14.200;2023-08-17T08:33:33;98198.81;;;25.69;59.98
81177;BME280;70786;48.272;14.200;2023-08-17T08:35:59;98195.31;;;25.56;60.53
81177;BME280;70786;48.272;14.200;2023-08-17T08:38:25;98192.00;;;24.76;62.33
81177;BME280;70786;48.272;14.200;2023-08-17T08:40:51;98184.94;;;25.05;60.47
81177;BME280;70786;48.272;14.200;2023-08-17T08:43:17;98189.38;;;25.04;59.01
81177;BME280;70786;48.272;14.200;2023-08-17T08:45:44;98181.38;;;25.40;59.62
81177;BME280;70786;48.272;14.200;2023-08-17T08:48:11;98185.28;;;25.51;59.10
81177;BME280;70786;48.272;14.200;2023-08-17T08:50:40;98191.66;;;25.29;59.15
81177;BME280;70786;48.272;14.200;2023-08-17T08:53:15;98180.69;;;25.32;59.78
81177;BME280;70786;48.272;14.200;2023-08-17T08:56:00;98184.25;;;25.80;58.37
81177;BME280;70786;48.272;14.200;2023-08-17T08:58:27;98187.44;;;24.91;59.34
81177;BME280;70786;48.272;14.200;2023-08-17T09:00:54;98177.47;;;26.06;58.21
81177;BME280;70786;48.272;14.200;2023-08-17T09:03:24;98179.31;;;24.50;61.40
81177;BME280;70786;48.272;14.200;2023-08-17T09:05:51;98178.94;;;26.15;59.09
81177;BME280;70786;48.272;14.200;2023-08-17T09:08:22;98188.72;;;25.17;61.24
81177;BME280;70786;48.272;14.200;2023-08-17T09:10:49;98184.00;;;26.78;56.81
81177;BME280;70786;48.272;14.200;2023-08-17T09:13:15;98179.44;;;26.39;58.52
81177;BME280;70786;48.272;14.200;2023-08-17T09:15:41;98183.78;;;25.35;61.09
81177;BME280;70786;48.272;14.200;2023-08-17T09:18:08;98187.91;;;27.09;56.20
81177;BME280;70786;48.272;14.200;2023-08-17T09:20:39;98180.50;;;25.68;56.56
81177;BME280;70786;48.272;14.200;2023-08-17T09:23:12;98179.53;;;27.12;55.56
81177;BME280;70786;48.272;14.200;2023-08-17T09:25:41;98174.63;;;26.75;56.62
81177;BME280;70786;48.272;14.200;2023-08-17T09:28:11;98170.53;;;26.59;59.07
81177;BME280;70786;48.272;14.200;2023-08-17T09:33:22;98165.41;;;26.51;55.97
81177;BME280;70786;48.272;14.200;2023-08-17T09:35:49;98165.44;;;26.65;57.45
81177;BME280;70786;48.272;14.200;2023-08-17T09:38:16;98163.94;;;26.42;56.79
81177;BME280;70786;48.272;14.200;2023-08-17T09:40:42;98158.31;;;26.78;55.66
81177;BME280;70786;48.272;14.200;2023-08-17T09:43:09;98159.50;;;26.49;56.07
81177;BME280;70786;48.272;14.200;2023-08-17T09:45:37;98152.34;;;26.50;57.54
81177;BME280;70786;48.272;14.200;2023-08-17T09:48:03;98154.56;;;26.46;56.21
81177;BME280;70786;48.272;14.200;2023-08-17T09:50:30;98155.03;;;26.56;57.90
81177;BME280;70786;48.272;14.200;2023-08-17T09:52:57;98148.59;;;26.18;59.20
81177;BME280;70786;48.272;14.200;2023-08-17T09:55:23;98149.94;;;26.55;57.56
81177;BME280;70786;48.272;14.200;2023-08-17T09:57:50;98143.22;;;26.66;57.79
81177;BME280;70786;48.272;14.200;2023-08-17T10:00:19;98145.88;;;27.05;57.08
81177;BME280;70786;48.272;14.200;2023-08-17T10:02:49;98148.41;;;26.26;55.92
81177;BME280;70786;48.272;14.200;2023-08-17T10:05:16;98149.09;;;27.54;56.12
81177;BME280;70786;48.272;14.200;2023-08-17T10:07:51;98145.69;;;27.07;56.11
81177;BME280;70786;48.272;14.200;2023-08-17T10:10:25;98148.13;;;27.35;56.67
81177;BME280;70786;48.272;14.200;2023-08-17T10:13:21;98141.25;;;26.20;59.04
81177;BME280;70786;48.272;14.200;2023-08-17T10:15:58;98140.16;;;26.82;58.16
81177;BME280;70786;48.272;14.200;2023-08-17T10:18:57;98150.47;;;26.37;56.02
81177;BME280;70786;48.272;14.200;2023-08-17T10:21:42;98149.34;;;26.66;54.91
81177;BME280;70786;48.272;14.200;2023-08-17T10:24:10;98132.41;;;26.74;57.00
81177;BME280;70786;48.272;14.200;2023-08-17T10:26:37;98139.31;;;25.94;56.30
81177;BME280;70786;48.272;14.200;2023-08-17T10:29:05;98141.38;;;26.73;56.09
81177;BME280;70786;48.272;14.200;2023-08-17T10:31:34;98145.41;;;26.49;56.35
81177;BME280;70786;48.272;14.200;2023-08-17T10:34:00;98132.41;;;26.61;55.27
81177;BME280;70786;48.272;14.200;2023-08-17T10:36:27;98129.56;;;27.09;55.05
81177;BME280;70786;48.272;14.200;2023-08-17T10:41:50;98124.88;;;27.04;53.56
81177;BME280;70786;48.272;14.200;2023-08-17T10:44:18;98130.19;;;27.17;55.37
81177;BME280;70786;48.272;14.200;2023-08-17T10:49:48;98127.94;;;27.01;54.54
81177;BME280;70786;48.272;14.200;2023-08-17T10:52:15;98130.56;;;26.94;54.54
81177;BME280;70786;48.272;14.200;2023-08-17T10:54:42;98126.09;;;27.01;55.34
81177;BME280;70786;48.272;14.200;2023-08-17T10:57:42;98128.13;;;26.66;53.85
81177;BME280;70786;48.272;14.200;2023-08-17T11:00:24;98130.19;;;27.17;54.10
81177;BME280;70786;48.272;14.200;2023-08-17T11:02:58;98134.25;;;26.73;55.79
81177;BME280;70786;48.272;14.200;2023-08-17T11:05:51;98126.50;;;27.05;54.64
81177;BME280;70786;48.272;14.200;2023-08-17T11:10:56;98114.25;;;27.24;56.23
81177;BME280;70786;48.272;14.200;2023-08-17T11:13:23;98110.59;;;27.32;54.21
81177;BME280;70786;48.272;14.200;2023-08-17T11:15:49;98117.63;;;27.64;54.89
81177;BME280;70786;48.272;14.200;2023-08-17T11:18:15;98112.59;;;27.10;54.02
81177;BME280;70786;48.272;14.200;2023-08-17T11:20:42;98122.41;;;27.09;51.31
81177;BME280;70786;48.272;14.200;2023-08-17T11:23:09;98112.75;;;27.61;52.13
81177;BME280;70786;48.272;14.200;2023-08-17T11:25:36;98109.78;;;27.31;51.81
81177;BME280;70786;48.272;14.200;2023-08-17T11:28:03;98101.34;;;27.47;50.89
81177;BME280;70786;48.272;14.200;2023-08-17T11:30:31;98107.13;;;27.04;51.96
81177;BME280;70786;48.272;14.200;2023-08-17T11:32:59;98101.41;;;27.34;51.73
81177;BME280;70786;48.272;14.200;2023-08-17T11:35:26;98100.13;;;27.50;50.60
81177;BME280;70786;48.272;14.200;2023-08-17T11:37:52;98103.13;;;27.60;51.38
81177;BME280;70786;48.272;14.200;2023-08-17T11:40:18;98104.06;;;27.34;50.30
81177;BME280;70786;48.272;14.200;2023-08-17T11:42:45;98104.28;;;26.93;51.61
81177;BME280;70786;48.272;14.200;2023-08-17T11:45:12;98111.44;;;27.90;50.43
81177;BME280;70786;48.272;14.200;2023-08-17T11:47:42;98095.81;;;27.56;50.59
81177;BME280;70786;48.272;14.200;2023-08-17T11:50:10;98098.66;;;27.54;47.34
81177;BME280;70786;48.272;14.200;2023-08-17T11:52:36;98096.47;;;27.96;49.58
81177;BME280;70786;48.272;14.200;2023-08-17T11:55:07;98095.50;;;27.90;48.38
81177;BME280;70786;48.272;14.200;2023-08-17T11:57:33;98089.13;;;27.98;47.51
81177;BME280;70786;48.272;14.200;2023-08-17T12:00:00;98098.75;;;27.92;48.34
81177;BME280;70786;48.272;14.200;2023-08-17T12:02:27;98092.69;;;27.72;50.61
81177;BME280;70786;48.272;14.200;2023-08-17T12:04:55;98091.63;;;27.86;50.28
81177;BME280;70786;48.272;14.200;2023-08-17T12:07:23;98095.75;;;27.76;51.50
81177;BME280;70786;48.272;14.200;2023-08-17T12:09:50;98094.31;;;27.73;49.73
81177;BME280;70786;48.272;14.200;2023-08-17T12:12:21;98089.59;;;27.88;49.59
81177;BME280;70786;48.272;14.200;2023-08-17T12:14:50;98085.03;;;27.95;48.79
81177;BME280;70786;48.272;14.200;2023-08-17T12:17:21;98086.97;;;28.20;49.20
81177;BME280;70786;48.272;14.200;2023-08-17T12:19:53;98076.78;;;27.79;50.63
81177;BME280;70786;48.272;14.200;2023-08-17T12:22:23;98078.41;;;27.73;52.26
81177;BME280;70786;48.272;14.200;2023-08-17T12:24:49;98077.25;;;27.56;49.64
81177;BME280;70786;48.272;14.200;2023-08-17T12:27:15;98068.53;;;27.35;51.61
81177;BME280;70786;48.272;14.200;2023-08-17T12:29:48;98060.13;;;27.45;51.76
81177;BME280;70786;48.272;14.200;2023-08-17T12:32:15;98060.69;;;28.37;50.99
81177;BME280;70786;48.272;14.200;2023-08-17T12:34:41;98052.91;;;28.42;49.38
81177;BME280;70786;48.272;14.200;2023-08-17T12:37:12;98044.44;;;27.43;50.61
81177;BME280;70786;48.272;14.200;2023-08-17T12:39:38;98054.22;;;27.36;49.42
81177;BME280;70786;48.272;14.200;2023-08-17T12:42:04;98051.56;;;28.26;47.40
81177;BME280;70786;48.272;14.200;2023-08-17T12:44:31;98048.19;;;28.12;45.77
81177;BME280;70786;48.272;14.200;2023-08-17T12:46:57;98039.34;;;27.87;47.95
81177;BME280;70786;48.272;14.200;2023-08-17T12:49:23;98043.06;;;28.11;47.37
81177;BME280;70786;48.272;14.200;2023-08-17T12:51:50;98048.41;;;27.66;47.82
81177;BME280;70786;48.272;14.200;2023-08-17T12:54:15;98046.66;;;27.46;49.04
81177;BME280;70786;48.272;14.200;2023-08-17T12:56:41;98048.19;;;28.12;47.78
81177;BME280;70786;48.272;14.200;2023-08-17T12:59:07;98043.44;;;28.21;44.79
81177;BME280;70786;48.272;14.200;2023-08-17T13:01:33;98043.56;;;28.33;47.52
81177;BME280;70786;48.272;14.200;2023-08-17T13:03:59;98030.09;;;27.58;48.20